createdAt,value
2023-01-13T00:00:30.931Z,1000.35
2023-01-13T00:01:30.908Z,1000.40
2023-01-13T00:02:30.827Z,1000.34
2023-01-13T00:03:30.812Z,1000.34
2023-01-13T00:04:30.861Z,1000.33
2023-01-13T00:05:30.827Z,1000.25
2023-01-13T00:06:30.818Z,1000.29
2023-01-13T00:07:30.795Z,1000.30
2023-01-13T00:08:30.741Z,1000.32
2023-01-13T00:09:30.745Z,1000.32
2023-01-13T00:10:30.711Z,1000.30
2023-01-13T00:11:30.757Z,1000.28
2023-01-13T00:12:30.718Z,1000.25
2023-01-13T00:13:30.683Z,1000.26
2023-01-13T00:14:30.691Z,1000.27
2023-01-13T00:15:30.670Z,1000.26
2023-01-13T00:16:30.706Z,1000.25
2023-01-13T00:17:30.647Z,1000.23
2023-01-13T00:18:30.667Z,1000.17
2023-01-13T00:19:30.637Z,1000.27
2023-01-13T00:20:30.637Z,1000.21
2023-01-13T00:21:30.632Z,1000.15
2023-01-13T00:22:30.591Z,1000.22
2023-01-13T00:23:30.591Z,1000.10
2023-01-13T00:24:30.562Z,1000.09
2023-01-13T00:25:30.538Z,1000.06
2023-01-13T00:26:30.615Z,1000.08
2023-01-13T00:27:30.524Z,1000.08
2023-01-13T00:28:30.535Z,1000.10
2023-01-13T00:29:30.503Z,1000.09
2023-01-13T00:30:30.518Z,1000.07
2023-01-13T00:31:30.617Z,1000.04
2023-01-13T00:32:30.488Z,1000.08
2023-01-13T00:33:30.464Z,1000.09
2023-01-13T00:34:30.445Z,1000.10
2023-01-13T00:35:30.443Z,1000.10
2023-01-13T00:36:30.491Z,1000.05
2023-01-13T00:37:30.429Z,1000.06
2023-01-13T00:38:30.399Z,1000.04
2023-01-13T00:39:30.411Z,1000.01
2023-01-13T00:40:30.391Z,1000.01
2023-01-13T00:41:30.419Z,1000.03
2023-01-13T00:42:30.375Z,1000.02
2023-01-13T00:43:30.357Z,1000.06
2023-01-13T00:44:30.336Z,1000.02
2023-01-13T00:45:30.337Z,1000.05
2023-01-13T00:46:30.372Z,999.97
2023-01-13T00:47:30.304Z,1000.01
2023-01-13T00:48:30.285Z,1000.00
2023-01-13T00:49:30.290Z,999.98
2023-01-13T00:50:30.295Z,999.96
2023-01-13T00:51:30.303Z,999.97
2023-01-13T00:52:30.232Z,999.92
2023-01-13T00:53:30.217Z,999.93
2023-01-13T00:54:30.229Z,999.96
2023-01-13T00:55:30.205Z,999.98
2023-01-13T00:56:45.328Z,999.98
2023-01-13T00:57:31.186Z,1000.01
2023-01-13T00:58:30.177Z,999.99
2023-01-13T00:59:30.170Z,1000.03
2023-01-13T01:00:30.169Z,1000.03
2023-01-13T01:01:30.327Z,1000.06
2023-01-13T01:02:30.204Z,1000.05
2023-01-13T01:03:30.134Z,1000.06
2023-01-13T01:04:30.104Z,1000.08
2023-01-13T01:05:30.118Z,1000.08
2023-01-13T01:06:30.133Z,1000.02
2023-01-13T01:07:30.096Z,1000.07
2023-01-13T01:08:30.064Z,1000.03
2023-01-13T01:09:30.041Z,1000.02
2023-01-13T01:10:30.044Z,1000.02
2023-01-13T01:11:30.088Z,999.99
2023-01-13T01:12:30.043Z,1000.05
2023-01-13T01:13:30.008Z,1000.04
2023-01-13T01:14:30.012Z,1000.07
2023-01-13T01:15:29.989Z,1000.01
2023-01-13T01:16:30.132Z,999.99
2023-01-13T01:17:29.981Z,1000.03
2023-01-13T01:18:29.948Z,999.95
2023-01-13T01:19:29.923Z,1000.03
2023-01-13T01:20:29.904Z,999.98
2023-01-13T01:21:29.967Z,999.96
2023-01-13T01:22:29.910Z,999.91
2023-01-13T01:23:29.905Z,999.95
2023-01-13T01:24:29.878Z,999.90
2023-01-13T01:25:29.855Z,999.90
2023-01-13T01:26:29.896Z,999.93
2023-01-13T01:27:29.847Z,999.95
2023-01-13T01:28:29.859Z,999.93
2023-01-13T01:29:29.809Z,999.96
2023-01-13T01:30:29.800Z,999.93
2023-01-13T01:31:29.847Z,999.92
2023-01-13T01:32:29.795Z,999.88
2023-01-13T01:33:29.814Z,999.85
2023-01-13T01:34:29.768Z,999.87
2023-01-13T01:35:29.788Z,999.86
2023-01-13T01:36:29.814Z,999.93
2023-01-13T01:37:29.755Z,999.86
2023-01-13T01:38:29.724Z,999.85
2023-01-13T01:39:29.729Z,999.86
2023-01-13T01:40:29.700Z,999.84
2023-01-13T01:41:29.736Z,999.87
2023-01-13T01:42:29.673Z,999.89
2023-01-13T01:43:29.665Z,999.89
2023-01-13T01:44:29.674Z,999.90
2023-01-13T01:45:29.620Z,999.87
2023-01-13T01:46:29.710Z,999.88
2023-01-13T01:47:29.607Z,999.88
2023-01-13T01:48:29.610Z,999.91
2023-01-13T01:49:29.606Z,999.87
2023-01-13T01:50:29.584Z,999.85
2023-01-13T01:51:29.619Z,999.89
2023-01-13T01:52:29.558Z,999.86
2023-01-13T01:53:29.565Z,999.81
2023-01-13T01:54:29.543Z,999.85
2023-01-13T01:55:29.529Z,999.80
2023-01-13T01:56:29.549Z,999.79
2023-01-13T01:57:29.497Z,999.79
2023-01-13T01:58:29.500Z,999.77
2023-01-13T01:59:29.489Z,999.75
2023-01-13T02:00:29.537Z,999.83
2023-01-13T02:01:29.651Z,999.79
2023-01-13T02:02:29.520Z,999.76
2023-01-13T02:03:29.450Z,999.76
2023-01-13T02:04:29.436Z,999.73
2023-01-13T02:05:29.437Z,999.69
2023-01-13T02:06:29.463Z,999.72
2023-01-13T02:07:29.406Z,999.66
2023-01-13T02:08:29.392Z,999.68
2023-01-13T02:09:29.388Z,999.64
2023-01-13T02:10:29.364Z,999.66
2023-01-13T02:11:29.393Z,999.65
2023-01-13T02:12:29.335Z,999.63
2023-01-13T02:13:29.315Z,999.61
2023-01-13T02:14:29.316Z,999.64
2023-01-13T02:15:29.302Z,999.59
2023-01-13T02:16:29.339Z,999.59
2023-01-13T02:17:29.292Z,999.56
2023-01-13T02:18:29.270Z,999.58
2023-01-13T02:19:29.273Z,999.55
2023-01-13T02:20:29.288Z,999.54
2023-01-13T02:21:29.253Z,999.56
2023-01-13T02:22:29.278Z,999.60
2023-01-13T02:23:29.218Z,999.52
2023-01-13T02:24:29.216Z,999.58
2023-01-13T02:25:29.188Z,999.54
2023-01-13T02:26:29.193Z,999.51
2023-01-13T02:27:29.213Z,999.51
2023-01-13T02:28:29.176Z,999.51
2023-01-13T02:29:29.144Z,999.51
2023-01-13T02:30:29.133Z,999.50
2023-01-13T02:31:29.180Z,999.49
2023-01-13T02:32:29.160Z,999.47
2023-01-13T02:33:29.096Z,999.49
2023-01-13T02:34:29.088Z,999.50
2023-01-13T02:35:29.117Z,999.47
2023-01-13T02:36:29.077Z,999.46
2023-01-13T02:37:29.101Z,999.43
2023-01-13T02:38:29.039Z,999.50
2023-01-13T02:39:29.019Z,999.45
2023-01-13T02:40:29.007Z,999.45
2023-01-13T02:41:29.064Z,999.51
2023-01-13T02:42:29.050Z,999.49
2023-01-13T02:43:28.977Z,999.46
2023-01-13T02:44:28.980Z,999.42
2023-01-13T02:45:28.987Z,999.46
2023-01-13T02:46:28.934Z,999.41
2023-01-13T02:47:28.985Z,999.38
2023-01-13T02:48:28.922Z,999.43
2023-01-13T02:49:28.948Z,999.39
2023-01-13T02:50:28.915Z,999.32
2023-01-13T02:51:28.912Z,999.32
2023-01-13T02:52:28.926Z,999.30
2023-01-13T02:53:28.869Z,999.33
2023-01-13T02:54:28.868Z,999.31
2023-01-13T02:55:28.839Z,999.29
2023-01-13T02:56:28.850Z,999.26
2023-01-13T02:57:28.877Z,999.28
2023-01-13T02:58:28.832Z,999.29
2023-01-13T02:59:28.778Z,999.29
2023-01-13T03:00:28.706Z,999.32
2023-01-13T03:01:28.758Z,999.28
2023-01-13T03:02:28.749Z,999.33
2023-01-13T03:03:28.666Z,999.29
2023-01-13T03:04:28.634Z,999.26
2023-01-13T03:05:28.637Z,999.30
2023-01-13T03:06:28.607Z,999.23
2023-01-13T03:07:28.636Z,999.23
2023-01-13T03:08:28.587Z,999.25
2023-01-13T03:09:28.606Z,999.27
2023-01-13T03:10:28.570Z,999.27
2023-01-13T03:11:28.549Z,999.26
2023-01-13T03:12:28.595Z,999.19
2023-01-13T03:13:28.539Z,999.28
2023-01-13T03:14:28.552Z,999.25
2023-01-13T03:15:28.562Z,999.29
2023-01-13T03:16:28.553Z,999.35
2023-01-13T03:17:28.556Z,999.31
2023-01-13T03:18:28.492Z,999.29
2023-01-13T03:19:28.484Z,999.23
2023-01-13T03:20:28.463Z,999.28
2023-01-13T03:21:28.477Z,999.28
2023-01-13T03:22:28.492Z,999.25
2023-01-13T03:23:28.423Z,999.28
2023-01-13T03:24:28.423Z,999.27
2023-01-13T03:25:28.426Z,999.23
2023-01-13T03:26:28.390Z,999.31
2023-01-13T03:27:28.426Z,999.22
2023-01-13T03:28:28.364Z,999.20
2023-01-13T03:29:28.363Z,999.22
2023-01-13T03:30:28.410Z,999.21
2023-01-13T03:31:28.335Z,999.25
2023-01-13T03:32:28.372Z,999.21
2023-01-13T03:33:28.319Z,999.22
2023-01-13T03:34:30.291Z,999.27
2023-01-13T03:35:28.287Z,999.23
2023-01-13T03:36:28.297Z,999.23
2023-01-13T03:37:28.309Z,999.27
2023-01-13T03:38:28.245Z,999.26
2023-01-13T03:39:28.244Z,999.24
2023-01-13T03:40:28.231Z,999.24
2023-01-13T03:41:28.221Z,999.23
2023-01-13T03:42:28.270Z,999.22
2023-01-13T03:43:28.198Z,999.23
2023-01-13T03:44:28.200Z,999.24
2023-01-13T03:45:28.180Z,999.30
2023-01-13T03:46:28.166Z,999.28
2023-01-13T03:47:28.213Z,999.25
2023-01-13T03:48:28.142Z,999.23
2023-01-13T03:49:28.137Z,999.24
2023-01-13T03:50:28.109Z,999.21
2023-01-13T03:51:28.133Z,999.21
2023-01-13T03:52:28.136Z,999.25
2023-01-13T03:53:28.101Z,999.19
2023-01-13T03:54:28.085Z,999.18
2023-01-13T03:55:28.061Z,999.18
2023-01-13T03:56:28.051Z,999.19
2023-01-13T03:57:28.096Z,999.20
2023-01-13T03:58:28.016Z,999.20
2023-01-13T03:59:28.017Z,999.20
2023-01-13T04:00:28.000Z,999.17
2023-01-13T04:01:28.077Z,999.25
2023-01-13T04:02:28.009Z,999.19
2023-01-13T04:03:28.082Z,999.24
2023-01-13T04:04:27.951Z,999.23
2023-01-13T04:05:27.947Z,999.24
2023-01-13T04:06:27.958Z,999.22
2023-01-13T04:07:27.934Z,999.20
2023-01-13T04:08:27.982Z,999.23
2023-01-13T04:09:27.915Z,999.22
2023-01-13T04:10:27.898Z,999.20
2023-01-13T04:11:27.890Z,999.22
2023-01-13T04:12:27.876Z,999.21
2023-01-13T04:13:27.951Z,999.18
2023-01-13T04:14:27.845Z,999.23
2023-01-13T04:15:27.886Z,999.25
2023-01-13T04:16:27.829Z,999.27
2023-01-13T04:17:27.820Z,999.28
2023-01-13T04:18:27.851Z,999.23
2023-01-13T04:19:27.804Z,999.27
2023-01-13T04:20:27.788Z,999.22
2023-01-13T04:21:27.775Z,999.29
2023-01-13T04:22:27.770Z,999.23
2023-01-13T04:23:27.801Z,999.29
2023-01-13T04:24:27.736Z,999.28
2023-01-13T04:25:27.724Z,999.26
2023-01-13T04:26:27.722Z,999.24
2023-01-13T04:27:27.699Z,999.27
2023-01-13T04:28:27.733Z,999.28
2023-01-13T04:29:27.697Z,999.27
2023-01-13T04:30:27.656Z,999.28
2023-01-13T04:31:27.727Z,999.27
2023-01-13T04:32:27.649Z,999.28
2023-01-13T04:33:27.673Z,999.25
2023-01-13T04:34:28.573Z,999.24
2023-01-13T04:35:27.618Z,999.17
2023-01-13T04:36:27.644Z,999.20
2023-01-13T04:37:27.609Z,999.20
2023-01-13T04:38:27.627Z,999.14
2023-01-13T04:39:27.571Z,999.23
2023-01-13T04:40:27.554Z,999.24
2023-01-13T04:41:27.535Z,999.21
2023-01-13T04:42:27.549Z,999.20
2023-01-13T04:43:27.578Z,999.19
2023-01-13T04:44:27.524Z,999.22
2023-01-13T04:45:27.506Z,999.20
2023-01-13T04:46:27.549Z,999.20
2023-01-13T04:47:27.476Z,999.23
2023-01-13T04:48:27.521Z,999.20
2023-01-13T04:49:27.453Z,999.19
2023-01-13T04:50:27.435Z,999.22
2023-01-13T04:51:27.440Z,999.25
2023-01-13T04:52:27.419Z,999.24
2023-01-13T04:53:27.464Z,999.25
2023-01-13T04:54:27.397Z,999.28
2023-01-13T04:55:27.385Z,999.25
2023-01-13T04:56:27.376Z,999.26
2023-01-13T04:57:27.386Z,999.23
2023-01-13T04:58:27.411Z,999.25
2023-01-13T04:59:27.394Z,999.29
2023-01-13T05:00:27.331Z,999.28
2023-01-13T05:01:27.416Z,999.28
2023-01-13T05:02:27.295Z,999.30
2023-01-13T05:03:27.345Z,999.34
2023-01-13T05:04:27.291Z,999.32
2023-01-13T05:05:27.274Z,999.28
2023-01-13T05:06:27.261Z,999.31
2023-01-13T05:07:27.257Z,999.29
2023-01-13T05:08:27.282Z,999.27
2023-01-13T05:09:27.225Z,999.32
2023-01-13T05:10:27.246Z,999.34
2023-01-13T05:11:27.217Z,999.29
2023-01-13T05:12:27.192Z,999.32
2023-01-13T05:13:27.226Z,999.30
2023-01-13T05:14:27.175Z,999.31
2023-01-13T05:15:27.167Z,999.31
2023-01-13T05:16:27.160Z,999.32
2023-01-13T05:17:27.148Z,999.35
2023-01-13T05:18:27.189Z,999.36
2023-01-13T05:19:27.117Z,999.28
2023-01-13T05:20:27.127Z,999.25
2023-01-13T05:21:27.113Z,999.25
2023-01-13T05:22:27.088Z,999.30
2023-01-13T05:23:27.123Z,999.24
2023-01-13T05:24:27.060Z,999.21
2023-01-13T05:25:27.057Z,999.21
2023-01-13T05:26:27.045Z,999.17
2023-01-13T05:27:27.055Z,999.20
2023-01-13T05:28:27.069Z,999.20
2023-01-13T05:29:27.000Z,999.18
2023-01-13T05:30:26.975Z,999.23
2023-01-13T05:31:27.012Z,999.24
2023-01-13T05:32:26.974Z,999.22
2023-01-13T05:33:27.017Z,999.31
2023-01-13T05:34:26.971Z,999.26
2023-01-13T05:35:26.958Z,999.19
2023-01-13T05:36:26.925Z,999.23
2023-01-13T05:37:26.918Z,999.27
2023-01-13T05:38:26.963Z,999.25
2023-01-13T05:39:26.899Z,999.24
2023-01-13T05:40:26.889Z,999.27
2023-01-13T05:41:26.893Z,999.26
2023-01-13T05:42:26.872Z,999.20
2023-01-13T05:43:26.901Z,999.24
2023-01-13T05:44:26.856Z,999.22
2023-01-13T05:45:26.864Z,999.22
2023-01-13T05:46:26.830Z,999.18
2023-01-13T05:47:26.826Z,999.20
2023-01-13T05:48:26.840Z,999.15
2023-01-13T05:49:26.789Z,999.19
2023-01-13T05:50:26.772Z,999.24
2023-01-13T05:51:26.758Z,999.24
2023-01-13T05:52:26.752Z,999.23
2023-01-13T05:53:26.786Z,999.23
2023-01-13T05:54:26.743Z,999.19
2023-01-13T05:55:26.712Z,999.25
2023-01-13T05:56:26.686Z,999.19
2023-01-13T05:57:26.680Z,999.25
2023-01-13T05:58:26.719Z,999.25
2023-01-13T05:59:26.678Z,999.24
2023-01-13T06:00:26.644Z,999.24
2023-01-13T06:01:26.757Z,999.21
2023-01-13T06:02:26.647Z,999.27
2023-01-13T06:03:26.681Z,999.30
2023-01-13T06:04:26.721Z,999.28
2023-01-13T06:05:26.591Z,999.29
2023-01-13T06:06:26.626Z,999.27
2023-01-13T06:07:26.588Z,999.32
2023-01-13T06:08:26.608Z,999.31
2023-01-13T06:09:26.551Z,999.29
2023-01-13T06:10:26.563Z,999.28
2023-01-13T06:11:26.525Z,999.34
2023-01-13T06:12:26.548Z,999.32
2023-01-13T06:13:26.590Z,999.38
2023-01-13T06:14:26.491Z,999.39
2023-01-13T06:15:26.516Z,999.34
2023-01-13T06:16:26.535Z,999.30
2023-01-13T06:17:26.487Z,999.26
2023-01-13T06:18:26.496Z,999.33
2023-01-13T06:19:26.476Z,999.37
2023-01-13T06:20:26.433Z,999.40
2023-01-13T06:21:26.421Z,999.35
2023-01-13T06:22:26.440Z,999.39
2023-01-13T06:23:26.429Z,999.37
2023-01-13T06:24:26.384Z,999.41
2023-01-13T06:25:26.377Z,999.39
2023-01-13T06:26:26.366Z,999.42
2023-01-13T06:27:26.364Z,999.40
2023-01-13T06:28:26.387Z,999.37
2023-01-13T06:29:26.364Z,999.40
2023-01-13T06:30:26.338Z,999.38
2023-01-13T06:31:26.351Z,999.46
2023-01-13T06:32:26.296Z,999.40
2023-01-13T06:33:26.308Z,999.44
2023-01-13T06:34:26.306Z,999.43
2023-01-13T06:35:26.283Z,999.38
2023-01-13T06:36:26.251Z,999.37
2023-01-13T06:37:26.243Z,999.36
2023-01-13T06:38:26.248Z,999.41
2023-01-13T06:39:26.277Z,999.42
2023-01-13T06:40:26.233Z,999.41
2023-01-13T06:41:26.194Z,999.40
2023-01-13T06:42:26.205Z,999.38
2023-01-13T06:43:26.192Z,999.46
2023-01-13T06:44:26.211Z,999.37
2023-01-13T06:45:26.170Z,999.39
2023-01-13T06:46:26.204Z,999.38
2023-01-13T06:47:26.137Z,999.40
2023-01-13T06:48:26.127Z,999.41
2023-01-13T06:49:26.168Z,999.40
2023-01-13T06:50:26.082Z,999.38
2023-01-13T06:51:26.076Z,999.40
2023-01-13T06:52:26.078Z,999.44
2023-01-13T06:53:26.060Z,999.47
2023-01-13T06:54:27.764Z,999.48
2023-01-13T06:55:26.067Z,999.48
2023-01-13T06:56:26.024Z,999.48
2023-01-13T06:57:26.033Z,999.47
2023-01-13T06:58:26.019Z,999.47
2023-01-13T06:59:26.184Z,999.43
2023-01-13T07:00:25.987Z,999.49
2023-01-13T07:01:26.064Z,999.44
2023-01-13T07:02:26.063Z,999.45
2023-01-13T07:03:25.968Z,999.49
2023-01-13T07:04:25.996Z,999.47
2023-01-13T07:05:25.901Z,999.42
2023-01-13T07:06:25.940Z,999.43
2023-01-13T07:07:25.908Z,999.44
2023-01-13T07:08:25.910Z,999.49
2023-01-13T07:09:25.930Z,999.45
2023-01-13T07:10:25.868Z,999.47
2023-01-13T07:11:25.853Z,999.51
2023-01-13T07:12:25.837Z,999.45
2023-01-13T07:13:25.824Z,999.43
2023-01-13T07:14:25.894Z,999.43
2023-01-13T07:15:25.841Z,999.50
2023-01-13T07:16:25.830Z,999.52
2023-01-13T07:17:25.784Z,999.42
2023-01-13T07:18:25.768Z,999.38
2023-01-13T07:19:25.824Z,999.38
2023-01-13T07:20:25.777Z,999.38
2023-01-13T07:21:25.767Z,999.30
2023-01-13T07:22:25.744Z,999.43
2023-01-13T07:23:25.725Z,999.41
2023-01-13T07:24:25.758Z,999.43
2023-01-13T07:25:25.706Z,999.45
2023-01-13T07:26:25.828Z,999.49
2023-01-13T07:27:25.670Z,999.43
2023-01-13T07:28:25.649Z,999.48
2023-01-13T07:29:25.686Z,999.51
2023-01-13T07:30:25.642Z,999.49
2023-01-13T07:31:25.645Z,999.50
2023-01-13T07:32:25.625Z,999.51
2023-01-13T07:33:25.611Z,999.53
2023-01-13T07:34:25.633Z,999.52
2023-01-13T07:35:25.585Z,999.54
2023-01-13T07:36:25.558Z,999.55
2023-01-13T07:37:25.562Z,999.54
2023-01-13T07:38:25.548Z,999.54
2023-01-13T07:39:25.568Z,999.53
2023-01-13T07:40:25.543Z,999.60
2023-01-13T07:41:25.515Z,999.58
2023-01-13T07:42:25.507Z,999.53
2023-01-13T07:43:25.498Z,999.55
2023-01-13T07:44:25.510Z,999.55
2023-01-13T07:45:25.475Z,999.50
2023-01-13T07:46:25.567Z,999.55
2023-01-13T07:47:25.466Z,999.50
2023-01-13T07:48:25.433Z,999.51
2023-01-13T07:49:25.481Z,999.50
2023-01-13T07:50:25.428Z,999.53
2023-01-13T07:51:25.399Z,999.56
2023-01-13T07:52:25.398Z,999.52
2023-01-13T07:53:25.367Z,999.55
2023-01-13T07:54:39.646Z,999.49
2023-01-13T07:55:26.385Z,999.48
2023-01-13T07:56:25.343Z,999.51
2023-01-13T07:57:25.343Z,999.50
2023-01-13T07:58:25.325Z,999.50
2023-01-13T07:59:25.369Z,999.49
2023-01-13T08:00:25.329Z,999.52
2023-01-13T08:01:25.350Z,999.49
2023-01-13T08:02:25.506Z,999.48
2023-01-13T08:03:25.272Z,999.48
2023-01-13T08:04:25.298Z,999.50
2023-01-13T08:05:25.218Z,999.50
2023-01-13T08:06:25.239Z,999.55
2023-01-13T08:07:25.216Z,999.51
2023-01-13T08:08:25.235Z,999.52
2023-01-13T08:09:25.229Z,999.64
2023-01-13T08:10:25.182Z,999.58
2023-01-13T08:11:25.154Z,999.60
2023-01-13T08:12:25.157Z,999.61
2023-01-13T08:13:25.156Z,999.66
2023-01-13T08:14:25.204Z,999.65
2023-01-13T08:15:25.144Z,999.66
2023-01-13T08:16:25.159Z,999.63
2023-01-13T08:17:25.109Z,999.60
2023-01-13T08:18:25.120Z,999.61
2023-01-13T08:19:25.124Z,999.57
2023-01-13T08:20:25.099Z,999.54
2023-01-13T08:21:25.091Z,999.59
2023-01-13T08:22:25.049Z,999.60
2023-01-13T08:23:25.021Z,999.57
2023-01-13T08:24:25.096Z,999.59
2023-01-13T08:25:25.033Z,999.63
2023-01-13T08:26:25.007Z,999.62
2023-01-13T08:27:24.969Z,999.57
2023-01-13T08:28:24.985Z,999.54
2023-01-13T08:29:25.023Z,999.61
2023-01-13T08:30:24.986Z,999.65
2023-01-13T08:31:25.005Z,999.64
2023-01-13T08:32:24.958Z,999.68
2023-01-13T08:33:24.944Z,999.64
2023-01-13T08:34:24.980Z,999.68
2023-01-13T08:35:24.889Z,999.70
2023-01-13T08:36:24.880Z,999.72
2023-01-13T08:37:24.868Z,999.76
2023-01-13T08:38:24.870Z,999.79
2023-01-13T08:39:24.960Z,999.74
2023-01-13T08:40:24.883Z,999.79
2023-01-13T08:41:24.862Z,999.81
2023-01-13T08:42:24.828Z,999.81
2023-01-13T08:43:24.807Z,999.81
2023-01-13T08:44:24.886Z,999.80
2023-01-13T08:45:24.792Z,999.83
2023-01-13T08:46:24.857Z,999.81
2023-01-13T08:47:24.749Z,999.90
2023-01-13T08:48:24.763Z,999.85
2023-01-13T08:49:24.841Z,999.89
2023-01-13T08:50:24.762Z,999.89
2023-01-13T08:51:24.745Z,999.92
2023-01-13T08:52:24.702Z,1000.00
2023-01-13T08:53:24.705Z,1000.00
2023-01-13T08:54:24.762Z,1000.04
2023-01-13T08:55:24.691Z,1000.05
2023-01-13T08:56:24.673Z,1000.10
2023-01-13T08:57:24.763Z,1000.12
2023-01-13T08:58:24.719Z,1000.18
2023-01-13T08:59:24.680Z,1000.17
2023-01-13T09:00:24.673Z,1000.22
2023-01-13T09:01:24.725Z,1000.18
2023-01-13T09:02:24.684Z,1000.15
2023-01-13T09:03:24.568Z,1000.18
2023-01-13T09:04:24.647Z,1000.19
2023-01-13T09:05:24.564Z,1000.22
2023-01-13T09:06:24.557Z,1000.24
2023-01-13T09:07:24.558Z,1000.28
2023-01-13T09:08:24.595Z,1000.31
2023-01-13T09:09:24.565Z,1000.33
2023-01-13T09:10:24.513Z,1000.33
2023-01-13T09:11:24.512Z,1000.34
2023-01-13T09:12:24.501Z,1000.35
2023-01-13T09:13:24.486Z,1000.37
2023-01-13T09:14:24.523Z,1000.43
2023-01-13T09:15:24.429Z,1000.43
2023-01-13T09:16:24.471Z,1000.49
2023-01-13T09:17:24.430Z,1000.53
2023-01-13T09:18:24.553Z,1000.56
2023-01-13T09:19:24.469Z,1000.63
2023-01-13T09:20:24.402Z,1000.56
2023-01-13T09:21:24.397Z,1000.60
2023-01-13T09:22:24.372Z,1000.66
2023-01-13T09:23:24.374Z,1000.68
2023-01-13T09:24:24.409Z,1000.71
2023-01-13T09:25:24.351Z,1000.62
2023-01-13T09:26:24.320Z,1000.61
2023-01-13T09:27:24.341Z,1000.59
2023-01-13T09:28:24.333Z,1000.58
2023-01-13T09:29:24.322Z,1000.59
2023-01-13T09:30:24.294Z,1000.62
2023-01-13T09:31:24.342Z,1000.70
2023-01-13T09:32:24.251Z,1000.58
2023-01-13T09:33:24.247Z,1000.64
2023-01-13T09:34:24.247Z,1000.50
2023-01-13T09:35:24.325Z,1000.48
2023-01-13T09:36:24.231Z,1000.47
2023-01-13T09:37:24.225Z,1000.48
2023-01-13T09:38:24.187Z,1000.49
2023-01-13T09:39:24.198Z,1000.45
2023-01-13T09:40:24.197Z,1000.38
2023-01-13T09:41:24.167Z,1000.45
2023-01-13T09:42:24.171Z,1000.33
2023-01-13T09:43:24.172Z,1000.27
2023-01-13T09:44:24.130Z,1000.26
2023-01-13T09:45:24.153Z,1000.20
2023-01-13T09:46:24.144Z,1000.24
2023-01-13T09:47:24.113Z,1000.24
2023-01-13T09:48:24.083Z,1000.23
2023-01-13T09:49:24.077Z,1000.24
2023-01-13T09:50:24.112Z,1000.22
2023-01-13T09:51:24.110Z,1000.26
2023-01-13T09:52:26.647Z,1000.19
2023-01-13T09:53:24.033Z,1000.26
2023-01-13T09:54:24.014Z,1000.23
2023-01-13T09:55:24.048Z,1000.24
2023-01-13T09:56:23.980Z,1000.24
2023-01-13T09:57:23.955Z,1000.20
2023-01-13T09:58:23.970Z,1000.16
2023-01-13T09:59:23.966Z,1000.12
2023-01-13T10:00:24.018Z,1000.10
2023-01-13T10:01:23.953Z,1000.02
2023-01-13T10:02:23.925Z,1000.07
2023-01-13T10:03:23.943Z,1000.29
2023-01-13T10:04:23.947Z,1000.28
2023-01-13T10:05:23.941Z,1000.39
2023-01-13T10:06:23.911Z,1000.35
2023-01-13T10:07:23.847Z,1000.38
2023-01-13T10:08:23.848Z,1000.35
2023-01-13T10:09:23.827Z,1000.34
2023-01-13T10:10:23.894Z,1000.29
2023-01-13T10:11:23.825Z,1000.31
2023-01-13T10:12:23.804Z,1000.41
2023-01-13T10:13:23.812Z,1000.38
2023-01-13T10:14:23.816Z,1000.44
2023-01-13T10:15:23.814Z,1000.38
2023-01-13T10:16:23.817Z,1000.45
2023-01-13T10:17:23.777Z,1000.48
2023-01-13T10:18:23.756Z,1000.47
2023-01-13T10:19:23.740Z,1000.51
2023-01-13T10:20:23.757Z,1000.56
2023-01-13T10:21:23.713Z,1000.44
2023-01-13T10:22:23.685Z,1000.43
2023-01-13T10:23:23.689Z,1000.44
2023-01-13T10:24:23.661Z,1000.44
2023-01-13T10:25:23.715Z,1000.41
2023-01-13T10:26:23.700Z,1000.46
2023-01-13T10:27:23.647Z,1000.50
2023-01-13T10:28:23.635Z,1000.52
2023-01-13T10:29:23.623Z,1000.57
2023-01-13T10:30:23.672Z,1000.55
2023-01-13T10:31:23.639Z,1000.57
2023-01-13T10:32:23.599Z,1000.53
2023-01-13T10:33:23.675Z,1000.50
2023-01-13T10:34:23.578Z,1000.64
2023-01-13T10:35:23.606Z,1000.61
2023-01-13T10:36:23.553Z,1000.57
2023-01-13T10:37:23.534Z,1000.58
2023-01-13T10:38:23.543Z,1000.56
2023-01-13T10:39:23.513Z,1000.45
2023-01-13T10:40:23.551Z,1000.48
2023-01-13T10:41:23.497Z,1000.46
2023-01-13T10:42:23.480Z,1000.34
2023-01-13T10:43:23.503Z,1000.39
2023-01-13T10:44:23.444Z,1000.30
2023-01-13T10:45:23.471Z,1000.26
2023-01-13T10:46:23.475Z,1000.23
2023-01-13T10:47:23.393Z,1000.22
2023-01-13T10:48:23.402Z,1000.28
2023-01-13T10:49:23.376Z,1000.37
2023-01-13T10:50:23.424Z,1000.27
2023-01-13T10:51:23.349Z,1000.29
2023-01-13T10:52:23.479Z,1000.25
2023-01-13T10:53:23.350Z,1000.29
2023-01-13T10:54:23.337Z,1000.26
2023-01-13T10:55:23.434Z,1000.37
2023-01-13T10:56:23.341Z,1000.39
2023-01-13T10:57:23.308Z,1000.39
2023-01-13T10:58:23.435Z,1000.34
2023-01-13T10:59:23.335Z,1000.31
2023-01-13T11:00:23.292Z,1000.31
2023-01-13T11:01:23.363Z,1000.26
2023-01-13T11:02:26.428Z,1000.34
2023-01-13T11:03:23.277Z,1000.28
2023-01-13T11:04:23.288Z,1000.25
2023-01-13T11:05:23.262Z,1000.29
2023-01-13T11:06:23.216Z,1000.21
2023-01-13T11:07:23.203Z,1000.18
2023-01-13T11:08:23.204Z,1000.11
2023-01-13T11:09:23.160Z,1000.10
2023-01-13T11:10:23.245Z,999.99
2023-01-13T11:11:23.137Z,999.92
2023-01-13T11:12:23.134Z,999.96
2023-01-13T11:13:23.132Z,999.84
2023-01-13T11:14:23.111Z,999.79
2023-01-13T11:15:23.190Z,999.64
2023-01-13T11:16:23.115Z,999.53
2023-01-13T11:17:23.052Z,999.44
2023-01-13T11:18:23.067Z,999.26
2023-01-13T11:19:23.049Z,999.21
2023-01-13T11:20:23.088Z,999.33
2023-01-13T11:21:23.063Z,999.57
2023-01-13T11:22:23.029Z,999.62
2023-01-13T11:23:23.007Z,999.63
2023-01-13T11:24:22.997Z,999.77
2023-01-13T11:25:23.054Z,999.75
2023-01-13T11:26:22.967Z,999.85
2023-01-13T11:27:22.946Z,999.85
2023-01-13T11:28:22.961Z,999.82
2023-01-13T11:29:22.955Z,999.77
2023-01-13T11:30:22.984Z,999.71
2023-01-13T11:31:23.034Z,999.57
2023-01-13T11:32:22.895Z,999.55
2023-01-13T11:33:22.911Z,999.56
2023-01-13T11:34:22.887Z,999.44
2023-01-13T11:35:22.928Z,999.47
2023-01-13T11:36:22.860Z,999.62
2023-01-13T11:37:22.840Z,999.74
2023-01-13T11:38:22.850Z,999.84
2023-01-13T11:39:22.834Z,999.88
2023-01-13T11:40:22.860Z,999.95
2023-01-13T11:41:22.850Z,999.89
2023-01-13T11:42:22.781Z,1000.02
2023-01-13T11:43:22.777Z,999.99
2023-01-13T11:44:22.763Z,1000.08
2023-01-13T11:45:22.790Z,1000.05
2023-01-13T11:46:22.770Z,1000.10
2023-01-13T11:47:22.760Z,1000.01
2023-01-13T11:48:22.723Z,1000.03
2023-01-13T11:49:22.712Z,1000.02
2023-01-13T11:50:22.744Z,1000.00
2023-01-13T11:51:22.700Z,1000.04
2023-01-13T11:52:22.688Z,1000.03
2023-01-13T11:53:22.675Z,1000.04
2023-01-13T11:54:22.682Z,1000.03
2023-01-13T11:55:22.958Z,1000.09
2023-01-13T11:56:22.630Z,1000.16
2023-01-13T11:57:22.640Z,1000.12
2023-01-13T11:58:22.616Z,1000.17
2023-01-13T11:59:22.610Z,1000.13
2023-01-13T12:00:22.627Z,1000.15
2023-01-13T12:01:23.457Z,1000.14
2023-01-13T12:02:22.624Z,1000.23
2023-01-13T12:03:22.612Z,1000.15
2023-01-13T12:04:22.542Z,1000.17
2023-01-13T12:05:22.598Z,1000.10
2023-01-13T12:06:22.534Z,1000.06
2023-01-13T12:07:23.393Z,1000.04
2023-01-13T12:08:22.499Z,1000.09
2023-01-13T12:09:22.494Z,1000.11
2023-01-13T12:10:22.501Z,1000.15
2023-01-13T12:11:22.458Z,1000.13
2023-01-13T12:12:22.465Z,1000.13
2023-01-13T12:13:22.450Z,1000.18
2023-01-13T12:14:22.452Z,1000.20
2023-01-13T12:15:22.482Z,1000.30
2023-01-13T12:16:22.431Z,1000.30
2023-01-13T12:17:22.389Z,1000.28
2023-01-13T12:18:22.394Z,1000.25
2023-01-13T12:19:22.383Z,1000.23
2023-01-13T12:20:22.412Z,1000.19